createdAt,value
2022-10-30T00:00:07.179Z,81.30
2022-10-30T00:03:52.164Z,81.30
2022-10-30T00:07:41.485Z,81.50
2022-10-30T00:11:30.589Z,81.60
2022-10-30T00:15:14.062Z,81.50
2022-10-30T00:19:01.648Z,81.60
2022-10-30T00:22:47.030Z,81.80
2022-10-30T00:26:32.947Z,81.70
2022-10-30T00:30:23.015Z,81.70
2022-10-30T00:34:06.887Z,81.60
2022-10-30T00:37:50.080Z,81.60
2022-10-30T00:41:34.505Z,81.60
2022-10-30T00:45:30.073Z,81.60
2022-10-30T00:49:24.003Z,81.70
2022-10-30T00:53:12.409Z,81.80
2022-10-30T00:56:55.877Z,81.80
2022-10-30T01:00:42.293Z,81.90
2022-10-30T01:04:32.374Z,81.90
2022-10-30T01:08:18.141Z,81.70
2022-10-30T01:12:07.068Z,81.60
2022-10-30T01:16:20.533Z,81.70
2022-10-30T01:20:18.669Z,82.20
2022-10-30T01:24:23.100Z,81.80
2022-10-30T01:28:25.186Z,82.30
2022-10-30T01:32:21.192Z,82.30
2022-10-30T01:36:31.862Z,82.00
2022-10-30T01:40:19.870Z,82.70
2022-10-30T01:44:15.455Z,82.10
2022-10-30T01:48:30.285Z,82.50
2022-10-30T01:52:49.889Z,82.70
2022-10-30T01:56:52.698Z,82.90
2022-10-30T02:00:37.360Z,82.50
2022-10-30T02:04:20.404Z,82.20
2022-10-30T02:12:00.338Z,82.30
2022-10-30T02:15:46.431Z,82.30
2022-10-30T02:19:29.184Z,82.50
2022-10-30T02:23:19.186Z,82.50
2022-10-30T02:27:03.908Z,82.50
2022-10-30T02:30:49.045Z,82.50
2022-10-30T02:34:35.165Z,82.60
2022-10-30T02:38:21.675Z,82.50
2022-10-30T02:42:08.306Z,82.60
2022-10-30T02:45:53.976Z,82.60
2022-10-30T02:49:37.394Z,82.70
2022-10-30T02:53:20.761Z,82.70
2022-10-30T02:57:04.420Z,82.60
2022-10-30T03:00:46.768Z,82.70
2022-10-30T03:04:30.371Z,82.60
2022-10-30T03:08:12.638Z,82.70
2022-10-30T03:11:55.871Z,82.70
2022-10-30T03:15:38.114Z,82.60
2022-10-30T03:19:21.491Z,82.60
2022-10-30T03:23:03.553Z,82.70
2022-10-30T03:26:45.648Z,82.70
2022-10-30T03:30:27.701Z,82.70
2022-10-30T03:34:09.768Z,82.90
2022-10-30T03:37:53.271Z,82.80
2022-10-30T03:41:35.216Z,82.80
2022-10-30T03:45:17.253Z,82.90
2022-10-30T03:48:59.403Z,82.90
2022-10-30T03:52:41.567Z,82.90
2022-10-30T03:56:23.792Z,82.90
2022-10-30T04:00:06.776Z,82.90
2022-10-30T04:03:50.863Z,82.90
2022-10-30T04:07:32.984Z,83.00
2022-10-30T04:11:15.119Z,83.10
2022-10-30T04:14:57.159Z,83.20
2022-10-30T04:18:39.347Z,83.20
2022-10-30T04:22:21.340Z,83.10
2022-10-30T04:26:03.402Z,83.20
2022-10-30T04:29:45.574Z,83.20
2022-10-30T04:33:29.067Z,83.30
2022-10-30T04:37:11.336Z,83.20
2022-10-30T04:40:53.412Z,83.20
2022-10-30T04:44:36.854Z,83.20
2022-10-30T04:48:19.586Z,83.20
2022-10-30T04:52:01.998Z,83.20
2022-10-30T04:55:46.007Z,83.30
2022-10-30T04:59:28.592Z,83.30
2022-10-30T05:03:32.719Z,83.40
2022-10-30T05:07:17.265Z,83.80
2022-10-30T05:11:00.342Z,83.30
2022-10-30T05:14:42.306Z,83.30
2022-10-30T05:18:33.281Z,83.30
2022-10-30T05:22:16.156Z,83.40
2022-10-30T05:30:03.579Z,83.20
2022-10-30T05:33:47.863Z,83.10
2022-10-30T05:37:34.054Z,83.00
2022-10-30T05:41:18.196Z,83.00
2022-10-30T05:45:05.173Z,83.20
2022-10-30T05:48:47.640Z,83.00
2022-10-30T05:52:35.823Z,83.00
2022-10-30T05:56:27.715Z,83.10
2022-10-30T06:00:17.691Z,83.00
2022-10-30T06:04:12.917Z,83.00
2022-10-30T06:07:57.128Z,83.10
2022-10-30T06:11:39.292Z,82.90
2022-10-30T06:15:23.347Z,82.90
2022-10-30T06:19:07.684Z,82.90
2022-10-30T06:23:12.310Z,83.00
2022-10-30T06:27:00.621Z,83.10
2022-10-30T06:30:45.832Z,83.00
2022-10-30T06:34:29.331Z,83.00
2022-10-30T06:38:17.266Z,83.00
2022-10-30T06:42:06.738Z,83.00
2022-10-30T06:45:52.733Z,83.00
2022-10-30T06:49:35.829Z,82.90
2022-10-30T06:53:25.305Z,82.90
2022-10-30T06:57:15.000Z,82.80
2022-10-30T07:01:01.625Z,82.90
2022-10-30T07:04:48.699Z,82.90
2022-10-30T07:08:40.949Z,82.90
2022-10-30T07:12:25.579Z,82.80
2022-10-30T07:16:23.571Z,82.70
2022-10-30T07:20:18.413Z,82.70
2022-10-30T07:24:05.263Z,82.70
2022-10-30T07:27:54.905Z,82.60
2022-10-30T07:31:57.503Z,82.60
2022-10-30T07:35:44.166Z,82.50
2022-10-30T07:39:27.366Z,82.40
2022-10-30T07:43:13.352Z,82.50
2022-10-30T07:46:55.453Z,82.40
2022-10-30T07:54:46.493Z,82.40
2022-10-30T07:58:28.978Z,82.30
2022-10-30T08:02:24.469Z,82.30
2022-10-30T08:06:11.674Z,82.30
2022-10-30T08:09:58.881Z,82.30
2022-10-30T08:13:44.031Z,82.30
2022-10-30T08:21:26.022Z,82.20
2022-10-30T08:25:08.976Z,82.20
2022-10-30T08:28:52.174Z,82.20
2022-10-30T08:32:34.565Z,82.10
2022-10-30T08:36:17.794Z,82.10
2022-10-30T08:40:01.432Z,82.00
2022-10-30T08:43:48.894Z,81.90
2022-10-30T08:47:34.953Z,81.70
2022-10-30T08:51:23.020Z,81.70
2022-10-30T08:55:14.080Z,81.60
2022-10-30T08:58:56.273Z,81.40
2022-10-30T09:02:41.659Z,81.10
2022-10-30T09:07:05.371Z,81.10
2022-10-30T09:11:07.242Z,80.60
2022-10-30T09:14:58.188Z,80.20
2022-10-30T09:22:43.676Z,80.00
2022-10-30T09:26:34.694Z,79.80
2022-10-30T09:30:50.246Z,79.50
2022-10-30T09:34:56.931Z,79.20
2022-10-30T09:38:38.922Z,79.60
2022-10-30T09:42:49.857Z,80.00
2022-10-30T09:47:45.692Z,79.60
2022-10-30T09:51:56.587Z,79.60
2022-10-30T09:55:50.608Z,79.50
2022-10-30T09:59:51.475Z,79.40
2022-10-30T10:04:21.003Z,79.00
2022-10-30T10:08:36.973Z,78.70
2022-10-30T10:13:00.360Z,80.00
2022-10-30T10:17:15.545Z,81.60
2022-10-30T10:21:31.475Z,82.40
2022-10-30T10:29:59.243Z,83.40
2022-10-30T10:42:21.315Z,83.30
2022-10-30T10:46:25.056Z,81.80
2022-10-30T10:50:20.996Z,80.20
2022-10-30T10:54:21.988Z,80.20
2022-10-30T10:58:30.461Z,80.30
2022-10-30T11:02:29.411Z,79.70
2022-10-30T11:06:35.510Z,79.40
2022-10-30T11:10:20.849Z,79.40
2022-10-30T11:14:29.393Z,79.80
2022-10-30T11:18:33.371Z,80.40
2022-10-30T11:22:49.594Z,82.30
2022-10-30T11:26:34.472Z,83.50
2022-10-30T11:30:37.856Z,83.60
2022-10-30T11:35:22.117Z,83.90
2022-10-30T11:39:37.683Z,82.20
2022-10-30T11:48:45.219Z,80.40
2022-10-30T11:52:28.745Z,81.40
2022-10-30T11:56:36.007Z,81.80
2022-10-30T12:00:27.942Z,81.40
2022-10-30T12:08:08.186Z,81.50
2022-10-30T12:11:56.700Z,81.40
2022-10-30T12:15:38.859Z,81.80
2022-10-30T12:24:01.870Z,78.50
2022-10-30T12:28:28.954Z,74.80
2022-10-30T12:32:44.560Z,74.80
2022-10-30T12:36:33.887Z,74.00
2022-10-30T12:40:34.833Z,76.00
2022-10-30T12:44:48.362Z,72.40
2022-10-30T12:48:53.476Z,69.10
2022-10-30T12:52:58.810Z,67.70
2022-10-30T12:56:52.321Z,65.50
2022-10-30T13:00:43.386Z,65.80
2022-10-30T13:04:38.194Z,64.80
2022-10-30T13:08:31.430Z,65.10
2022-10-30T13:12:20.096Z,65.10
2022-10-30T13:16:08.776Z,65.40
2022-10-30T13:19:51.719Z,65.20
2022-10-30T13:23:39.627Z,65.80
2022-10-30T13:27:41.186Z,64.50
2022-10-30T13:31:23.443Z,64.30
2022-10-30T13:35:43.581Z,64.40
2022-10-30T13:40:11.107Z,61.10
2022-10-30T13:44:26.452Z,60.10
2022-10-30T13:49:01.224Z,59.30
2022-10-30T13:53:01.353Z,58.50
2022-10-30T14:02:16.058Z,60.40
2022-10-30T14:06:45.280Z,59.60
2022-10-30T14:10:49.666Z,59.60
2022-10-30T14:14:37.427Z,61.00
2022-10-30T14:18:52.820Z,61.90
2022-10-30T14:33:02.263Z,61.40
2022-10-30T14:36:52.667Z,62.10
2022-10-30T14:41:23.452Z,63.90
2022-10-30T14:45:26.688Z,64.50
2022-10-30T14:53:45.082Z,66.20
2022-10-30T14:58:07.871Z,66.40
2022-10-30T15:07:02.398Z,67.60
2022-10-30T15:11:21.234Z,67.90
2022-10-30T15:15:15.494Z,68.40
2022-10-30T15:19:25.502Z,68.60
2022-10-30T15:23:29.730Z,68.90
2022-10-30T15:27:43.390Z,69.20
2022-10-30T15:31:36.236Z,69.60
2022-10-30T15:35:34.077Z,70.10
2022-10-30T15:40:00.931Z,70.40
2022-10-30T15:49:26.923Z,71.10
